Mansfield, Indiana
Current Conditions -  °F | °C
As of 12:15 PM on Tuesday 27 Jan 2015 (Local Time) from K4I7 Reporting Station
Overcast Overcast  
Wind Chill: 24°   Ceiling: 1100
Heat Index: 30°   Visibility: 7mi
Dew Point: 23°   Wind: 6mph
Humidity: 75%   Direction: 50°NE
Pressure: 30.11"   Gusts: NA
Location:  39.7714°N, 87.1705°W
Report Text: K4I7 271715Z AUTO 05005KT 7SM OVC011 M01/M05 A3011 RMK AO2
Loading
Personal Weather Stations






























Interactive Weather Map New forecast layout! Learn more

10-Day Weather Forecast

Advertisements
Track Severe Weather on mobile